FMEE

Roland Garros Airport

St Denis, Reunion
METAR FMEE 260300Z 12010KT 9999 FEW026 SCT060 27/22 Q1012
Observed Flight Rules
Feb-26 @ 03:00 UTC (22 minutes ago) Visual Flight Rules
Wind Visibility Clouds
120° at 10 knots 10,000+ meters
  • Few at 2,600' AGL
  • Scattered at 6,000' AGL
Temperatures Readings
Current 27°C / 81°F
Dewpoint 22°C / 72°F
Humidity 74%
Altimeter 29.88" Hg
Pressure 1012 hPa
Elevation 25
METAR FMEE 260300Z 12010KT 9999 FEW026 SCT060 27/22 Q1012
Observed Flight Rules
Feb-26 @ 03:00 UTC
(22 minutes ago)
VFR
Wind Visibility
120° at 10 knots 10,000+ meters
Clouds
  • Few at 2,600' AGL
  • Scattered at 6,000' AGL
Temperature Dewpoint
27°C / 81°F 22°C / 72°F
Humidity Altimeter Pressure
74% 29.88" Hg 1012 hPa